createdAt,value
2022-10-11T00:00:44.347Z,3.63
2022-10-11T00:03:12.121Z,2.73
2022-10-11T00:05:44.234Z,4.50
2022-10-11T00:08:12.230Z,4.60
2022-10-11T00:10:40.599Z,3.77
2022-10-11T00:13:08.574Z,4.10
2022-10-11T00:15:36.591Z,3.97
2022-10-11T00:18:05.526Z,4.20
2022-10-11T00:20:33.979Z,3.87
2022-10-11T00:23:03.032Z,4.07
2022-10-11T00:25:30.745Z,3.33
2022-10-11T00:27:58.484Z,3.40
2022-10-11T00:30:26.541Z,3.00
2022-10-11T00:32:54.234Z,3.17
2022-10-11T00:35:22.644Z,4.10
2022-10-11T00:37:50.441Z,2.80
2022-10-11T00:40:21.545Z,5.67
2022-10-11T00:42:49.266Z,2.90
2022-10-11T00:45:55.286Z,3.80
2022-10-11T00:48:27.517Z,8.07
2022-10-11T00:50:56.624Z,4.30
2022-10-11T00:53:24.721Z,2.50
2022-10-11T00:56:00.479Z,4.00
2022-10-11T00:58:28.465Z,7.83
2022-10-11T01:00:56.828Z,2.57
2022-10-11T01:03:27.794Z,5.77
2022-10-11T01:05:57.239Z,1.67
2022-10-11T01:08:25.728Z,3.27
2022-10-11T01:10:56.168Z,5.30
2022-10-11T01:13:37.072Z,2.73
2022-10-11T01:16:15.181Z,3.87
2022-10-11T01:18:50.674Z,1.50
2022-10-11T01:21:33.534Z,3.87
2022-10-11T01:24:24.729Z,2.23
2022-10-11T01:27:38.439Z,5.07
2022-10-11T01:30:25.057Z,2.40
2022-10-11T01:33:01.846Z,4.57
2022-10-11T01:35:36.723Z,3.70
2022-10-11T01:38:11.523Z,3.77
2022-10-11T01:40:46.867Z,4.83
2022-10-11T01:43:16.185Z,5.67
2022-10-11T01:45:49.367Z,2.27
2022-10-11T01:48:17.263Z,2.43
2022-10-11T01:50:47.993Z,2.63
2022-10-11T01:53:36.112Z,2.73
2022-10-11T01:56:15.964Z,1.83
2022-10-11T01:58:57.969Z,1.87
2022-10-11T02:01:38.992Z,2.07
2022-10-11T02:04:14.055Z,3.23
2022-10-11T02:06:50.691Z,1.47
2022-10-11T02:09:26.516Z,2.07
2022-10-11T02:12:00.197Z,1.87
2022-10-11T02:14:34.622Z,2.80
2022-10-11T02:17:09.594Z,1.23
2022-10-11T02:19:41.952Z,2.43
2022-10-11T02:22:16.310Z,2.03
2022-10-11T02:24:50.181Z,3.10
2022-10-11T02:27:22.727Z,1.40
2022-10-11T02:29:52.551Z,2.27
2022-10-11T02:32:26.457Z,1.63
2022-10-11T02:34:56.392Z,1.50
2022-10-11T02:37:31.414Z,2.20
2022-10-11T02:40:05.026Z,1.73
2022-10-11T02:42:37.747Z,2.70
2022-10-11T02:45:10.644Z,2.63
2022-10-11T02:47:41.172Z,2.80
2022-10-11T02:50:09.386Z,2.97
2022-10-11T02:52:37.754Z,8.33
2022-10-11T02:55:06.561Z,4.37
2022-10-11T02:57:34.577Z,4.33
2022-10-11T03:00:02.679Z,6.60
2022-10-11T03:02:30.724Z,3.20
2022-10-11T03:05:00.145Z,4.30
2022-10-11T03:07:28.215Z,4.30
2022-10-11T03:09:55.927Z,2.83
2022-10-11T03:12:23.837Z,2.47
2022-10-11T03:14:51.536Z,3.20
2022-10-11T03:17:35.689Z,2.57
2022-10-11T03:20:07.053Z,2.43
2022-10-11T03:22:35.563Z,2.50
2022-10-11T03:25:04.591Z,2.00
2022-10-11T03:27:33.196Z,3.33
2022-10-11T03:30:00.957Z,2.67
2022-10-11T03:32:29.835Z,2.00
2022-10-11T03:34:57.658Z,2.47
2022-10-11T03:37:27.705Z,3.73
2022-10-11T03:39:55.417Z,2.63
2022-10-11T03:42:23.429Z,2.53
2022-10-11T03:44:51.959Z,3.13
2022-10-11T03:47:20.817Z,2.50
2022-10-11T03:49:48.470Z,4.17
2022-10-11T03:52:16.484Z,3.60
2022-10-11T03:54:46.281Z,4.87
2022-10-11T03:57:13.965Z,3.13
2022-10-11T03:59:42.352Z,2.20
2022-10-11T04:02:10.509Z,3.67
2022-10-11T04:04:38.705Z,3.13
2022-10-11T04:07:06.666Z,3.17
2022-10-11T04:09:34.846Z,3.83
2022-10-11T04:12:04.041Z,3.93
2022-10-11T04:14:31.762Z,4.57
2022-10-11T04:17:00.516Z,4.90
2022-10-11T04:19:29.415Z,4.07
2022-10-11T04:21:57.620Z,3.90
2022-10-11T04:24:25.314Z,2.80
2022-10-11T04:26:53.039Z,1.73
2022-10-11T04:29:22.689Z,2.17
2022-10-11T04:31:50.409Z,2.57
2022-10-11T04:34:18.593Z,2.13
2022-10-11T04:36:49.775Z,1.50
2022-10-11T04:39:17.864Z,1.67
2022-10-11T04:41:45.586Z,1.60
2022-10-11T04:44:13.338Z,2.93
2022-10-11T04:46:42.383Z,1.90
2022-10-11T04:49:10.082Z,2.63
2022-10-11T04:51:37.858Z,3.00
2022-10-11T04:54:05.835Z,3.20
2022-10-11T04:56:33.555Z,4.20
2022-10-11T04:59:01.298Z,4.13
2022-10-11T05:01:29.009Z,2.63
2022-10-11T05:03:58.663Z,2.23
2022-10-11T05:06:26.676Z,7.40
2022-10-11T05:08:55.185Z,2.40
2022-10-11T05:11:23.179Z,2.43
2022-10-11T05:13:52.517Z,2.50
2022-10-11T05:16:20.194Z,2.13
2022-10-11T05:18:48.095Z,2.23
2022-10-11T05:21:19.577Z,1.77
2022-10-11T05:23:48.640Z,3.07
2022-10-11T05:26:17.171Z,2.33
2022-10-11T05:28:45.688Z,1.83
2022-10-11T05:31:13.777Z,1.90
2022-10-11T05:33:42.047Z,2.70
2022-10-11T05:36:10.225Z,2.87
2022-10-11T05:38:40.531Z,6.83
2022-10-11T05:41:09.966Z,5.83
2022-10-11T05:43:37.989Z,4.90
2022-10-11T05:46:07.093Z,3.93
2022-10-11T05:48:35.562Z,3.63
2022-10-11T05:51:06.438Z,2.93
2022-10-11T05:53:34.261Z,7.80
2022-10-11T05:56:04.459Z,2.63
2022-10-11T05:58:32.313Z,2.93
2022-10-11T06:01:00.414Z,6.40
2022-10-11T06:03:28.383Z,5.00
2022-10-11T06:05:57.350Z,2.53
2022-10-11T06:08:25.185Z,3.30
2022-10-11T06:10:52.886Z,5.83
2022-10-11T06:13:21.926Z,2.83
2022-10-11T06:15:49.945Z,5.57
2022-10-11T06:18:17.622Z,4.47
2022-10-11T06:20:45.610Z,10.90
2022-10-11T06:23:13.293Z,1.83
2022-10-11T06:25:41.667Z,2.17
2022-10-11T06:28:09.383Z,5.73
2022-10-11T06:30:40.056Z,7.43
2022-10-11T06:33:07.750Z,4.07
2022-10-11T06:35:35.798Z,6.60
2022-10-11T06:38:03.477Z,4.17
2022-10-11T06:40:31.169Z,6.77
2022-10-11T06:42:58.850Z,3.97
2022-10-11T06:45:27.038Z,5.17
2022-10-11T06:47:56.102Z,3.53
2022-10-11T06:50:47.145Z,6.23
2022-10-11T06:53:12.338Z,4.93
2022-10-11T06:55:40.053Z,3.03
2022-10-11T06:58:07.763Z,1.90
2022-10-11T07:00:35.523Z,3.47
2022-10-11T07:03:04.878Z,1.93
2022-10-11T07:05:33.451Z,3.43
2022-10-11T07:08:01.171Z,2.97
2022-10-11T07:10:29.417Z,4.37
2022-10-11T07:12:57.325Z,6.20
2022-10-11T07:15:25.309Z,3.87
2022-10-11T07:17:53.003Z,2.73
2022-10-11T07:20:22.707Z,5.37
2022-10-11T07:22:50.386Z,5.40
2022-10-11T07:25:18.481Z,3.13
2022-10-11T07:27:46.215Z,4.03
2022-10-11T07:30:14.184Z,6.33
2022-10-11T07:32:41.874Z,3.33
2022-10-11T07:35:10.167Z,3.77
2022-10-11T07:37:39.241Z,3.53
2022-10-11T07:40:10.840Z,2.73
2022-10-11T07:42:38.741Z,5.03
2022-10-11T07:45:07.547Z,8.17
2022-10-11T07:47:35.225Z,4.30
2022-10-11T07:50:03.245Z,3.97
2022-10-11T07:52:30.943Z,3.20
2022-10-11T07:54:59.993Z,8.57
2022-10-11T07:57:27.713Z,6.70
2022-10-11T07:59:55.445Z,7.60
2022-10-11T08:02:23.163Z,4.77
2022-10-11T08:04:51.374Z,4.80
2022-10-11T08:07:19.063Z,3.27
2022-10-11T08:09:47.201Z,6.13
2022-10-11T08:12:16.246Z,3.90
2022-10-11T08:14:44.580Z,4.07
2022-10-11T08:17:12.277Z,5.03
2022-10-11T08:19:40.240Z,4.23
2022-10-11T08:22:08.033Z,3.97
2022-10-11T08:24:38.348Z,6.00
2022-10-11T08:27:06.422Z,3.13
2022-10-11T08:29:35.791Z,5.10
2022-10-11T08:32:03.493Z,4.10
2022-10-11T08:34:31.230Z,2.93
2022-10-11T08:36:58.915Z,3.97
2022-10-11T08:39:26.754Z,4.67
2022-10-11T08:41:56.617Z,5.17
2022-10-11T08:45:05.876Z,6.67
2022-10-11T08:47:31.946Z,4.13
2022-10-11T08:50:00.707Z,3.57
2022-10-11T08:52:32.023Z,4.40
2022-10-11T08:55:04.384Z,9.50
2022-10-11T08:57:36.754Z,5.60
2022-10-11T09:00:08.771Z,4.30
2022-10-11T09:03:07.588Z,8.50
2022-10-11T09:05:37.224Z,4.27
2022-10-11T09:08:14.931Z,9.90
2022-10-11T09:10:56.519Z,8.07
2022-10-11T09:13:43.649Z,7.57
2022-10-11T09:16:23.867Z,5.67
2022-10-11T09:19:08.496Z,4.33
2022-10-11T09:21:43.134Z,5.27
2022-10-11T09:24:37.913Z,6.20
2022-10-11T09:27:17.862Z,7.03
2022-10-11T09:29:55.797Z,3.87
2022-10-11T09:32:29.829Z,12.10
2022-10-11T09:35:01.875Z,8.20
2022-10-11T09:37:35.627Z,4.70
2022-10-11T09:40:13.785Z,6.07
2022-10-11T09:42:41.668Z,7.17
2022-10-11T09:45:21.664Z,3.73
2022-10-11T09:47:52.620Z,5.03
2022-10-11T09:50:22.570Z,4.03
2022-10-11T09:52:51.542Z,5.73
2022-10-11T09:55:39.698Z,8.40
2022-10-11T09:58:27.893Z,11.20
2022-10-11T10:01:07.322Z,5.80
2022-10-11T10:03:39.052Z,10.03
2022-10-11T10:06:10.921Z,7.03
2022-10-11T10:08:38.862Z,5.20
2022-10-11T10:11:08.372Z,10.67
2022-10-11T10:13:44.109Z,4.80
2022-10-11T10:16:24.783Z,3.63
2022-10-11T10:18:56.376Z,3.37
2022-10-11T10:21:29.069Z,4.80
2022-10-11T10:24:00.006Z,4.17
2022-10-11T10:26:28.078Z,5.47
2022-10-11T10:28:59.108Z,8.40
2022-10-11T10:31:44.396Z,9.27
2022-10-11T10:34:24.396Z,7.27
2022-10-11T10:36:56.333Z,8.37
2022-10-11T10:39:30.067Z,4.90
2022-10-11T10:41:58.342Z,8.30
2022-10-11T10:44:26.153Z,5.83
2022-10-11T10:47:06.821Z,6.07
2022-10-11T10:49:59.586Z,5.10
2022-10-11T10:52:47.350Z,7.47
2022-10-11T10:55:24.768Z,6.17
2022-10-11T10:58:06.179Z,7.17
2022-10-11T11:00:43.424Z,6.53
2022-10-11T11:03:21.570Z,4.97
2022-10-11T11:06:01.321Z,6.27
2022-10-11T11:08:58.717Z,7.27
2022-10-11T11:11:40.670Z,8.30
2022-10-11T11:14:20.239Z,7.33
2022-10-11T11:16:55.446Z,7.77
2022-10-11T11:19:34.727Z,5.47
2022-10-11T11:22:11.217Z,7.03
2022-10-11T11:24:52.919Z,3.70
2022-10-11T11:27:32.295Z,6.47
2022-10-11T11:30:05.548Z,4.30
2022-10-11T11:32:47.077Z,3.23
2022-10-11T11:35:20.808Z,4.13
2022-10-11T11:38:00.197Z,4.17
2022-10-11T11:40:38.159Z,4.30
2022-10-11T11:43:09.438Z,4.50
2022-10-11T11:45:47.374Z,5.03
2022-10-11T11:48:18.979Z,8.00
2022-10-11T11:50:54.111Z,4.30
2022-10-11T11:53:36.463Z,4.93
2022-10-11T11:56:10.218Z,6.30
2022-10-11T11:58:44.797Z,5.10
2022-10-11T12:01:24.013Z,9.97
2022-10-11T12:03:56.175Z,3.30
2022-10-11T12:06:27.278Z,9.00
2022-10-11T12:09:09.124Z,3.73
2022-10-11T12:11:45.972Z,5.00
2022-10-11T12:14:27.601Z,10.83
2022-10-11T12:17:20.354Z,7.10
2022-10-11T12:20:17.338Z,10.43
2022-10-11T12:23:24.430Z,9.73
2022-10-11T12:26:20.721Z,4.97
2022-10-11T12:29:35.980Z,5.57
2022-10-11T12:32:53.629Z,4.73
2022-10-11T12:36:08.291Z,7.93
2022-10-11T12:38:39.917Z,2.63
2022-10-11T12:41:50.744Z,2.20
2022-10-11T12:44:24.104Z,5.23
2022-10-11T12:47:33.583Z,3.77
2022-10-11T12:50:16.941Z,11.93
2022-10-11T12:52:57.977Z,3.53
2022-10-11T12:55:42.831Z,6.40
2022-10-11T12:58:26.859Z,5.50
2022-10-11T13:01:14.540Z,5.27
2022-10-11T13:03:43.902Z,6.17
2022-10-11T13:06:16.862Z,4.43
2022-10-11T13:08:48.427Z,6.10
2022-10-11T13:11:21.508Z,3.87
2022-10-11T13:13:55.022Z,4.17
2022-10-11T13:16:25.937Z,8.00
2022-10-11T13:18:57.458Z,8.73
2022-10-11T13:21:30.199Z,8.80
2022-10-11T13:24:01.528Z,2.97
2022-10-11T13:26:32.235Z,6.00
2022-10-11T13:29:01.395Z,8.33
2022-10-11T13:31:29.688Z,9.47
2022-10-11T13:34:00.396Z,4.17
2022-10-11T13:36:28.664Z,3.57
2022-10-11T13:38:59.622Z,3.03
2022-10-11T13:41:29.360Z,2.07
2022-10-11T13:43:59.521Z,4.40
2022-10-11T13:46:30.514Z,2.80
2022-10-11T13:48:59.961Z,2.93
2022-10-11T13:51:32.397Z,3.73
2022-10-11T13:54:05.096Z,5.90
2022-10-11T13:56:37.971Z,4.20
2022-10-11T13:59:06.403Z,3.40
2022-10-11T14:01:41.713Z,8.20
2022-10-11T14:04:12.472Z,4.77
2022-10-11T14:06:45.332Z,6.33
2022-10-11T14:09:21.547Z,3.60
2022-10-11T14:11:50.151Z,3.27
2022-10-11T14:14:48.877Z,6.80
2022-10-11T14:17:20.994Z,3.97
2022-10-11T14:20:08.711Z,4.90
2022-10-11T14:22:39.456Z,7.43
2022-10-11T14:25:07.550Z,2.93
2022-10-11T14:27:35.585Z,3.47
2022-10-11T14:30:24.484Z,14.13
2022-10-11T14:32:55.628Z,3.50
2022-10-11T14:35:30.436Z,14.00
2022-10-11T14:37:58.639Z,4.00
2022-10-11T14:40:28.514Z,3.20
2022-10-11T14:42:57.000Z,4.63
2022-10-11T14:45:25.121Z,6.40
2022-10-11T14:47:55.222Z,6.20
2022-10-11T14:50:37.741Z,4.23
2022-10-11T14:53:06.087Z,5.83
2022-10-11T14:55:34.010Z,3.40
2022-10-11T14:58:02.318Z,6.47
2022-10-11T15:00:30.995Z,5.37
2022-10-11T15:03:01.000Z,3.60
2022-10-11T15:05:33.854Z,2.70
2022-10-11T15:08:02.336Z,3.70
2022-10-11T15:10:31.862Z,11.50
2022-10-11T15:13:00.408Z,6.33
2022-10-11T15:15:30.595Z,5.17
2022-10-11T15:18:01.879Z,3.17
2022-10-11T15:20:32.597Z,3.60
2022-10-11T15:23:01.827Z,4.97
2022-10-11T15:25:30.321Z,2.13
2022-10-11T15:27:58.793Z,2.10
2022-10-11T15:30:29.558Z,3.40
2022-10-11T15:32:57.379Z,5.17
2022-10-11T15:35:27.957Z,2.53
2022-10-11T15:37:58.420Z,4.73
2022-10-11T15:40:28.959Z,4.93
2022-10-11T15:42:56.788Z,3.77
2022-10-11T15:45:25.856Z,5.27
2022-10-11T15:47:53.971Z,8.00
2022-10-11T15:50:34.797Z,3.33
2022-10-11T15:53:05.564Z,2.30
2022-10-11T15:55:34.689Z,4.73
2022-10-11T15:58:02.540Z,3.43
2022-10-11T16:00:30.877Z,5.90
2022-10-11T16:03:00.275Z,5.13
2022-10-11T16:05:29.226Z,4.17
2022-10-11T16:07:56.936Z,4.63
2022-10-11T16:10:25.992Z,3.70
2022-10-11T16:12:54.326Z,4.53
2022-10-11T16:15:22.008Z,4.80
2022-10-11T16:17:50.465Z,5.13
2022-10-11T16:20:22.068Z,5.07
2022-10-11T16:22:50.255Z,4.73
2022-10-11T16:25:18.569Z,5.10
2022-10-11T16:27:48.191Z,3.70
2022-10-11T16:30:17.214Z,4.00
2022-10-11T16:32:46.012Z,5.37
2022-10-11T16:35:15.830Z,4.63
2022-10-11T16:37:44.429Z,3.90
2022-10-11T16:40:15.769Z,4.63
2022-10-11T16:42:43.471Z,3.63
2022-10-11T16:45:12.784Z,5.67
2022-10-11T16:47:40.807Z,4.83
2022-10-11T16:50:10.194Z,4.60
2022-10-11T16:52:38.326Z,8.23
2022-10-11T16:55:07.593Z,4.03
2022-10-11T16:57:37.632Z,4.33
2022-10-11T17:00:07.765Z,4.03
2022-10-11T17:02:37.241Z,4.53
2022-10-11T17:05:06.065Z,4.47
2022-10-11T17:07:33.787Z,4.93
2022-10-11T17:10:01.998Z,3.50
2022-10-11T17:12:31.835Z,4.90
2022-10-11T17:14:59.575Z,4.40
2022-10-11T17:17:27.998Z,4.23
2022-10-11T17:19:57.300Z,4.23
2022-10-11T17:22:25.563Z,4.17
2022-10-11T17:24:53.560Z,4.87
2022-10-11T17:27:21.277Z,7.37
2022-10-11T17:29:49.860Z,6.73
2022-10-11T17:32:17.557Z,6.73
2022-10-11T17:34:45.283Z,8.07
2022-10-11T17:37:14.368Z,9.57
2022-10-11T17:39:42.406Z,8.37
2022-10-11T17:42:10.106Z,8.47
2022-10-11T17:44:37.970Z,8.20
2022-10-11T17:47:05.807Z,7.53
2022-10-11T17:49:33.592Z,6.77
2022-10-11T17:52:01.306Z,8.90
2022-10-11T17:54:30.543Z,9.53
2022-10-11T17:56:58.794Z,11.10
2022-10-11T17:59:28.803Z,8.20
2022-10-11T18:01:56.530Z,11.30
2022-10-11T18:04:27.257Z,11.87
2022-10-11T18:06:55.212Z,11.10
2022-10-11T18:09:24.617Z,11.97
2022-10-11T18:11:53.936Z,9.40
2022-10-11T18:14:21.772Z,9.63
2022-10-11T18:16:49.970Z,9.40
2022-10-11T18:19:18.052Z,8.93
2022-10-11T18:21:45.894Z,14.60
2022-10-11T18:24:15.976Z,10.63
2022-10-11T18:26:44.718Z,8.67
2022-10-11T18:29:14.327Z,7.43
2022-10-11T18:31:42.400Z,7.87
2022-10-11T18:34:11.631Z,8.73
2022-10-11T18:36:39.858Z,7.27
2022-10-11T18:39:09.354Z,7.97
2022-10-11T18:41:39.426Z,7.03
2022-10-11T18:44:11.265Z,8.43
2022-10-11T18:46:40.754Z,9.70
2022-10-11T18:49:08.889Z,8.83
2022-10-11T18:51:38.326Z,6.57
2022-10-11T18:54:08.169Z,7.53
2022-10-11T18:56:37.037Z,8.37
2022-10-11T18:59:06.439Z,9.73
2022-10-11T19:01:35.876Z,8.43
2022-10-11T19:04:06.791Z,7.47
2022-10-11T19:06:38.158Z,8.23
2022-10-11T19:09:08.236Z,8.70
2022-10-11T19:11:36.207Z,10.60
2022-10-11T19:14:07.281Z,12.10
2022-10-11T19:16:37.607Z,13.10
2022-10-11T19:19:07.322Z,18.17
2022-10-11T19:21:35.092Z,24.97
2022-10-11T19:24:02.928Z,11.80
2022-10-11T19:26:33.498Z,7.93
2022-10-11T19:29:04.856Z,11.13
2022-10-11T19:31:33.457Z,9.57
2022-10-11T19:34:01.756Z,8.10
2022-10-11T19:36:36.243Z,7.10
2022-10-11T19:39:05.439Z,6.90
2022-10-11T19:41:33.543Z,8.47
2022-10-11T19:44:01.308Z,8.27
2022-10-11T19:46:50.457Z,10.63
2022-10-11T19:49:20.270Z,8.97
2022-10-11T19:51:49.340Z,11.93
2022-10-11T19:54:17.929Z,9.07
2022-10-11T19:56:45.810Z,11.03
2022-10-11T19:59:14.438Z,12.53
2022-10-11T20:01:46.637Z,9.80
2022-10-11T20:04:39.525Z,16.30
2022-10-11T20:07:06.434Z,7.97
2022-10-11T20:09:34.505Z,9.13
2022-10-11T20:12:02.199Z,9.67
2022-10-11T20:14:30.491Z,10.03
2022-10-11T20:16:58.858Z,11.03
2022-10-11T20:19:30.706Z,12.77
2022-10-11T20:21:59.750Z,9.70
2022-10-11T20:24:32.616Z,9.73
2022-10-11T20:27:01.410Z,8.37
2022-10-11T20:29:29.466Z,8.20
2022-10-11T20:31:58.801Z,8.83
2022-10-11T20:34:27.603Z,7.43
2022-10-11T20:36:55.351Z,6.40
2022-10-11T20:39:23.639Z,8.67
2022-10-11T20:41:52.696Z,7.17
2022-10-11T20:44:20.768Z,7.87
2022-10-11T20:46:48.521Z,11.47
2022-10-11T20:49:16.610Z,8.57
2022-10-11T20:51:44.305Z,7.77
2022-10-11T20:54:12.774Z,8.27
2022-10-11T20:56:41.737Z,8.00
2022-10-11T20:59:11.296Z,8.53
2022-10-11T21:01:40.765Z,8.10
2022-10-11T21:04:15.258Z,8.03
2022-10-11T21:06:43.249Z,8.13
2022-10-11T21:09:15.505Z,7.30
2022-10-11T21:11:44.579Z,8.17
2022-10-11T21:14:14.089Z,7.93
2022-10-11T21:16:41.956Z,10.80
2022-10-11T21:19:14.534Z,8.60
2022-10-11T21:21:42.354Z,6.90
2022-10-11T21:24:10.798Z,6.17
2022-10-11T21:26:38.501Z,7.80
2022-10-11T21:29:07.501Z,8.30
2022-10-11T21:31:37.036Z,6.47
2022-10-11T21:34:07.298Z,5.50
2022-10-11T21:36:35.110Z,5.13
2022-10-11T21:39:03.670Z,9.00
2022-10-11T21:41:31.359Z,5.77
2022-10-11T21:43:59.686Z,7.00
2022-10-11T21:49:19.734Z,6.00
2022-10-11T21:51:47.445Z,6.30
2022-10-11T21:54:15.496Z,7.30
2022-10-11T21:56:43.289Z,6.50
2022-10-11T21:59:12.615Z,7.40
2022-10-11T22:01:41.684Z,8.37
2022-10-11T22:04:11.579Z,8.73
2022-10-11T22:06:41.203Z,6.70
2022-10-11T22:09:10.070Z,6.77
2022-10-11T22:11:38.254Z,7.33
2022-10-11T22:14:07.067Z,8.90
2022-10-11T22:16:35.587Z,7.33
2022-10-11T22:19:03.434Z,7.07
2022-10-11T22:21:31.216Z,5.97
2022-10-11T22:24:00.291Z,6.43
2022-10-11T22:26:30.989Z,7.03
2022-10-11T22:28:59.914Z,6.53
2022-10-11T22:31:27.839Z,6.33
2022-10-11T22:33:56.551Z,7.37
2022-10-11T22:36:25.069Z,6.43
2022-10-11T22:38:54.760Z,7.37
2022-10-11T22:41:24.551Z,7.77
2022-10-11T22:43:52.814Z,7.77
2022-10-11T22:46:20.614Z,8.27
2022-10-11T22:48:48.769Z,8.73
2022-10-11T22:51:17.094Z,9.10
2022-10-11T22:53:44.792Z,9.47
2022-10-11T22:56:13.305Z,8.67
2022-10-11T22:58:42.350Z,9.40
2022-10-11T23:01:11.452Z,10.83
2022-10-11T23:03:39.259Z,8.83
2022-10-11T23:06:07.884Z,8.00
2022-10-11T23:08:35.695Z,9.37
2022-10-11T23:11:05.353Z,8.27
2022-10-11T23:13:33.059Z,7.47
2022-10-11T23:16:07.127Z,8.63
2022-10-11T23:18:35.421Z,8.00
2022-10-11T23:21:03.441Z,8.87
2022-10-11T23:23:31.189Z,7.87
2022-10-11T23:26:06.100Z,7.73
2022-10-11T23:28:34.284Z,7.87
2022-10-11T23:31:07.562Z,7.13
2022-10-11T23:33:35.380Z,8.43
2022-10-11T23:36:03.404Z,7.73
2022-10-11T23:38:31.405Z,6.80
2022-10-11T23:40:59.420Z,7.50
2022-10-11T23:43:27.108Z,9.17
2022-10-11T23:45:56.334Z,8.77
2022-10-11T23:48:25.434Z,8.10
2022-10-11T23:50:53.506Z,9.97
2022-10-11T23:53:21.228Z,9.77
2022-10-11T23:55:49.151Z,11.40
2022-10-11T23:58:16.825Z,11.83
